PWSweather.com
Personal Weather Stations
Station Observations
K4FB1
Clubhouse Heritage, Lakeland, FL 33812

Clubhouse HeritageLakeland, FL 33812

Lat: 27.969224, Lon: -81.897769

Elevation: 145

Station Type: Davis Vantage Pro2

http://www.ClubhouseWX.com

Latest ConditionsUpdated 3:50:00 AM EST Friday, Mar 6, 2015
Currently Today's Max Today's Min Today's Average
Temperature 68.6°F20.3°C 69.8°F21.0°C 66.9°F19.4°C 68.8°F20.4°C
Dew Point 66.5°F19.2°C 67.8°F19.9°C 64.5°F18.1°C 66.7°F19.3°C
Winds 1.0 mph WNW1.6 kmh WNW 3.0 mph W4.8 kmh W - 1.1 mph 1.8 kmh
Wind Gusts 4.0 mph6.4 kmh 8.0 mph12.9 kmh - -
Humidity 93% 94% 92% 93%
Pressure 30.10 in1019.3 mb 30.13 in1020.3 mb 30.09 in1019.0 mb -
Hour Temp Dew Point Humidity Winds Wind Gusts Pressure Precip Precip Rate Daily Precip Total
03:50 AM 68.6°F20.3°C 66.5°F19.2°C 93% 1.0 mph WNW1.6 kmh WNW 4.0 mph6.4 kmh 30.10 in1019.3 mb 0.00 in0.0 mm 0.00 in/hr0.0 mm/hr 0.00 in0.0 mm
03:45 AM 68.6°F20.3°C 66.5°F19.2°C 93% 1.0 mph W1.6 kmh W 3.0 mph4.8 kmh 30.10 in1019.3 mb 0.00 in0.0 mm 0.00 in/hr0.0 mm/hr 0.00 in0.0 mm
03:40 AM 68.6°F20.3°C 66.5°F19.2°C 93% 1.0 mph WNW1.6 kmh WNW 4.0 mph6.4 kmh 30.10 in1019.3 mb 0.00 in0.0 mm 0.00 in/hr0.0 mm/hr 0.00 in0.0 mm
03:35 AM 68.6°F20.3°C 66.5°F19.2°C 93% 2.0 mph WNW3.2 kmh WNW 5.0 mph8.0 kmh 30.10 in1019.3 mb 0.00 in0.0 mm 0.00 in/hr0.0 mm/hr 0.00 in0.0 mm
03:30 AM 68.6°F20.3°C 66.5°F19.2°C 93% 2.0 mph W3.2 kmh W 5.0 mph8.0 kmh 30.10 in1019.3 mb 0.00 in0.0 mm 0.00 in/hr0.0 mm/hr 0.00 in0.0 mm
03:25 AM 68.6°F20.3°C 66.8°F19.3°C 94% 3.0 mph WNW4.8 kmh WNW 5.0 mph8.0 kmh 30.10 in1019.3 mb 0.00 in0.0 mm 0.00 in/hr0.0 mm/hr 0.00 in0.0 mm
03:20 AM 68.6°F20.3°C 66.8°F19.3°C 94% 2.0 mph NW3.2 kmh NW 7.0 mph11.3 kmh 30.10 in1019.3 mb 0.00 in0.0 mm 0.00 in/hr0.0 mm/hr 0.00 in0.0 mm
03:15 AM 68.5°F20.3°C 66.4°F19.1°C 93% 2.0 mph WNW3.2 kmh WNW 7.0 mph11.3 kmh 30.10 in1019.3 mb 0.00 in0.0 mm 0.00 in/hr0.0 mm/hr 0.00 in0.0 mm
03:10 AM 68.6°F20.3°C 66.5°F19.2°C 93% 2.0 mph WNW3.2 kmh WNW 8.0 mph12.9 kmh 30.10 in1019.3 mb 0.00 in0.0 mm 0.00 in/hr0.0 mm/hr 0.00 in0.0 mm
03:05 AM 68.6°F20.3°C 66.5°F19.2°C 93% 2.0 mph W3.2 kmh W 8.0 mph12.9 kmh 30.10 in1019.3 mb 0.00 in0.0 mm 0.00 in/hr0.0 mm/hr 0.00 in0.0 mm
03:00 AM 68.7°F20.4°C 66.6°F19.2°C 93% 2.0 mph WNW3.2 kmh WNW 6.0 mph9.7 kmh 30.10 in1019.3 mb 0.00 in0.0 mm 0.00 in/hr0.0 mm/hr 0.00 in0.0 mm
02:55 AM 68.7°F20.4°C 66.6°F19.2°C 93% 1.0 mph NW1.6 kmh NW 5.0 mph8.0 kmh 30.10 in1019.3 mb 0.00 in0.0 mm 0.00 in/hr0.0 mm/hr 0.00 in0.0 mm
02:50 AM 68.8°F20.4°C 66.7°F19.3°C 93% 1.0 mph W1.6 kmh W 3.0 mph4.8 kmh 30.10 in1019.3 mb 0.00 in0.0 mm 0.00 in/hr0.0 mm/hr 0.00 in0.0 mm
02:45 AM 69.0°F20.6°C 66.9°F19.4°C 93% 1.0 mph W1.6 kmh W 3.0 mph4.8 kmh 30.09 in1019.0 mb 0.00 in0.0 mm 0.00 in/hr0.0 mm/hr 0.00 in0.0 mm
02:40 AM 69.1°F20.6°C 67.0°F19.4°C 93% 1.0 mph W1.6 kmh W 4.0 mph6.4 kmh 30.09 in1019.0 mb 0.00 in0.0 mm 0.00 in/hr0.0 mm/hr 0.00 in0.0 mm
02:35 AM 69.2°F20.7°C 67.1°F19.5°C 93% 2.0 mph W3.2 kmh W 5.0 mph8.0 kmh 30.10 in1019.3 mb 0.00 in0.0 mm 0.00 in/hr0.0 mm/hr 0.00 in0.0 mm
02:30 AM 69.3°F20.7°C 67.2°F19.6°C 93% 1.0 mph W1.6 kmh W 5.0 mph8.0 kmh 30.10 in1019.3 mb 0.00 in0.0 mm 0.00 in/hr0.0 mm/hr 0.00 in0.0 mm
02:25 AM 69.4°F20.8°C 67.3°F19.6°C 93% 1.0 mph WSW1.6 kmh WSW 3.0 mph4.8 kmh 30.10 in1019.3 mb 0.00 in0.0 mm 0.00 in/hr0.0 mm/hr 0.00 in0.0 mm
02:20 AM 69.6°F20.9°C 67.5°F19.7°C 93% 2.0 mph WSW3.2 kmh WSW 5.0 mph8.0 kmh 30.10 in1019.3 mb 0.00 in0.0 mm 0.00 in/hr0.0 mm/hr 0.00 in0.0 mm
02:15 AM 69.7°F20.9°C 67.6°F19.8°C 93% 2.0 mph WSW3.2 kmh WSW 6.0 mph9.7 kmh 30.10 in1019.3 mb 0.00 in0.0 mm 0.00 in/hr0.0 mm/hr 0.00 in0.0 mm
02:10 AM 69.8°F21.0°C 67.7°F19.8°C 93% 2.0 mph W3.2 kmh W 6.0 mph9.7 kmh 30.10 in1019.3 mb 0.00 in0.0 mm 0.00 in/hr0.0 mm/hr 0.00 in0.0 mm
02:05 AM 69.8°F21.0°C 67.7°F19.8°C 93% 3.0 mph W4.8 kmh W 8.0 mph12.9 kmh 30.10 in1019.3 mb 0.00 in0.0 mm 0.00 in/hr0.0 mm/hr 0.00 in0.0 mm
02:00 AM 69.8°F21.0°C 67.7°F19.8°C 93% 3.0 mph W4.8 kmh W 8.0 mph12.9 kmh 30.10 in1019.3 mb 0.00 in0.0 mm 0.00 in/hr0.0 mm/hr 0.00 in0.0 mm
01:55 AM 69.8°F21.0°C 67.7°F19.8°C 93% 3.0 mph W4.8 kmh W 6.0 mph9.7 kmh 30.10 in1019.3 mb 0.00 in0.0 mm 0.00 in/hr0.0 mm/hr 0.00 in0.0 mm
01:50 AM 69.6°F20.9°C 67.8°F19.9°C 94% 2.0 mph W3.2 kmh W 6.0 mph9.7 kmh 30.11 in1019.6 mb 0.00 in0.0 mm 0.00 in/hr0.0 mm/hr 0.00 in0.0 mm
01:45 AM 69.4°F20.8°C 67.3°F19.6°C 93% 1.0 mph WSW1.6 kmh WSW 4.0 mph6.4 kmh 30.10 in1019.3 mb 0.00 in0.0 mm 0.00 in/hr0.0 mm/hr 0.00 in0.0 mm
01:40 AM 69.3°F20.7°C 67.2°F19.6°C 93% 1.0 mph WSW1.6 kmh WSW 3.0 mph4.8 kmh 30.10 in1019.3 mb 0.00 in0.0 mm 0.00 in/hr0.0 mm/hr 0.00 in0.0 mm
01:35 AM 69.2°F20.7°C 67.1°F19.5°C 93% 1.0 mph WSW1.6 kmh WSW 4.0 mph6.4 kmh 30.11 in1019.6 mb 0.00 in0.0 mm 0.00 in/hr0.0 mm/hr 0.00 in0.0 mm
01:30 AM 69.2°F20.7°C 67.1°F19.5°C 93% 1.0 mph W1.6 kmh W 4.0 mph6.4 kmh 30.11 in1019.6 mb 0.00 in0.0 mm 0.00 in/hr0.0 mm/hr 0.00 in0.0 mm
01:25 AM 69.0°F20.6°C 66.9°F19.4°C 93% 1.0 mph WSW1.6 kmh WSW 3.0 mph4.8 kmh 30.11 in1019.6 mb 0.00 in0.0 mm 0.00 in/hr0.0 mm/hr 0.00 in0.0 mm
01:20 AM 69.0°F20.6°C 66.9°F19.4°C 93% 1.0 mph SW1.6 kmh SW 3.0 mph4.8 kmh 30.11 in1019.6 mb 0.00 in0.0 mm 0.00 in/hr0.0 mm/hr 0.00 in0.0 mm
01:15 AM 69.0°F20.6°C 66.9°F19.4°C 93% Calm Calm 2.0 mph3.2 kmh 30.11 in1019.6 mb 0.00 in0.0 mm 0.00 in/hr0.0 mm/hr 0.00 in0.0 mm
01:10 AM 69.1°F20.6°C 67.0°F19.4°C 93% Calm Calm 2.0 mph3.2 kmh 30.11 in1019.6 mb 0.00 in0.0 mm 0.00 in/hr0.0 mm/hr 0.00 in0.0 mm
01:05 AM 69.1°F20.6°C 67.0°F19.4°C 93% Calm Calm 3.0 mph4.8 kmh 30.12 in1020.0 mb 0.00 in0.0 mm 0.00 in/hr0.0 mm/hr 0.00 in0.0 mm
01:00 AM 69.1°F20.6°C 67.0°F19.4°C 93% Calm Calm 3.0 mph4.8 kmh 30.12 in1020.0 mb 0.00 in0.0 mm 0.00 in/hr0.0 mm/hr 0.00 in0.0 mm
12:55 AM 69.0°F20.6°C 66.9°F19.4°C 93% Calm Calm 2.0 mph3.2 kmh 30.12 in1020.0 mb 0.00 in0.0 mm 0.00 in/hr0.0 mm/hr 0.00 in0.0 mm
12:50 AM 68.9°F20.5°C 66.8°F19.3°C 93% Calm Calm 3.0 mph4.8 kmh 30.12 in1020.0 mb 0.00 in0.0 mm 0.00 in/hr0.0 mm/hr 0.00 in0.0 mm
12:45 AM 68.9°F20.5°C 67.1°F19.5°C 94% Calm Calm 3.0 mph4.8 kmh 30.12 in1020.0 mb 0.00 in0.0 mm 0.00 in/hr0.0 mm/hr 0.00 in0.0 mm
12:40 AM 68.6°F20.3°C 66.8°F19.3°C 94% Calm Calm 4.0 mph6.4 kmh 30.12 in1020.0 mb 0.00 in0.0 mm 0.00 in/hr0.0 mm/hr 0.00 in0.0 mm
12:35 AM 68.4°F20.2°C 66.3°F19.1°C 93% 1.0 mph WSW1.6 kmh WSW 4.0 mph6.4 kmh 30.12 in1020.0 mb 0.00 in0.0 mm 0.00 in/hr0.0 mm/hr 0.00 in0.0 mm
12:30 AM 68.1°F20.1°C 66.0°F18.9°C 93% 1.0 mph WSW1.6 kmh WSW 3.0 mph4.8 kmh 30.12 in1020.0 mb 0.00 in0.0 mm 0.00 in/hr0.0 mm/hr 0.00 in0.0 mm
12:25 AM 67.6°F19.8°C 65.5°F18.6°C 93% Calm Calm 2.0 mph3.2 kmh 30.12 in1020.0 mb 0.00 in0.0 mm 0.00 in/hr0.0 mm/hr 0.00 in0.0 mm
12:20 AM 67.5°F19.7°C 65.4°F18.6°C 93% Calm Calm 2.0 mph3.2 kmh 30.13 in1020.3 mb 0.00 in0.0 mm 0.00 in/hr0.0 mm/hr 0.00 in0.0 mm
12:15 AM 67.2°F19.6°C 65.1°F18.4°C 93% Calm Calm 2.0 mph3.2 kmh 30.13 in1020.3 mb 0.00 in0.0 mm 0.00 in/hr0.0 mm/hr 0.00 in0.0 mm
12:10 AM 67.0°F19.4°C 64.6°F18.1°C 92% Calm Calm 2.0 mph3.2 kmh 30.13 in1020.3 mb 0.00 in0.0 mm 0.00 in/hr0.0 mm/hr 0.00 in0.0 mm
12:05 AM 66.9°F19.4°C 64.5°F18.1°C 92% Calm Calm 1.0 mph1.6 kmh 30.13 in1020.3 mb 0.00 in0.0 mm 0.00 in/hr0.0 mm/hr 0.00 in0.0 mm
12:00 AM 66.9°F19.4°C 64.5°F18.1°C 92% Calm Calm -- 30.13 in1020.3 mb 0.00 in0.0 mm 0.00 in/hr0.0 mm/hr 0.00 in0.0 mm